Time;durP1;ratioP1;P1;durP2;ratioP2;P2;SDS_P1;SDS_P2;PMS_P1;PMS_P2;Temp;Humidity;BMP_temperature;BMP_pressure;BME280_temperature;BME280_humidity;BME280_pressure;Samples;Min_cycle;Max_cycle;Signal;HPM_P1;HPM_P2
2021/06/25 00:01:38;;;;;;;11.15;10.07;;;12.30;99.90;;;;;;5051981;28;20051;-72
2021/06/25 00:04:04;;;;;;;10.90;10.00;;;12.30;99.90;;;;;;5052655;28;20037;-72
2021/06/25 00:06:30;;;;;;;10.73;9.82;;;12.20;99.90;;;;;;5051727;28;20048;-71
2021/06/25 00:08:56;;;;;;;10.32;9.43;;;12.10;99.90;;;;;;5052493;28;20044;-71
2021/06/25 00:11:22;;;;;;;10.95;10.05;;;12.10;99.90;;;;;;5052216;28;20112;-72
2021/06/25 00:13:49;;;;;;;11.43;10.43;;;12.10;99.90;;;;;;5052718;28;20123;-72
2021/06/25 00:16:15;;;;;;;10.60;9.60;;;12.00;99.90;;;;;;5034554;28;20052;-72
2021/06/25 00:18:41;;;;;;;11.43;10.25;;;11.90;99.90;;;;;;5051987;28;20037;-72
2021/06/25 00:21:07;;;;;;;10.85;10.05;;;11.90;99.90;;;;;;5051786;28;20036;-72
2021/06/25 00:23:33;;;;;;;10.93;9.57;;;11.80;99.90;;;;;;5052436;28;20040;-72
2021/06/25 00:25:59;;;;;;;10.43;9.50;;;11.80;99.90;;;;;;5052144;28;20037;-72
2021/06/25 00:28:25;;;;;;;9.23;8.50;;;11.70;99.90;;;;;;5051689;28;20370;-72
2021/06/25 00:30:50;;;;;;;9.80;9.00;;;11.70;99.90;;;;;;5050620;28;20041;-72
2021/06/25 00:33:16;;;;;;;9.60;8.80;;;11.60;99.90;;;;;;5051394;28;20044;-72
2021/06/25 00:35:42;;;;;;;10.38;9.55;;;11.60;99.90;;;;;;5052030;28;20044;-72
2021/06/25 00:38:08;;;;;;;10.25;9.48;;;11.50;99.90;;;;;;5051723;28;20036;-72
2021/06/25 00:40:34;;;;;;;10.23;9.10;;;11.50;99.90;;;;;;5051992;28;20033;-72
2021/06/25 00:43:01;;;;;;;9.73;8.93;;;11.40;99.90;;;;;;5050749;28;20048;-72
2021/06/25 00:45:27;;;;;;;14.30;9.57;;;11.40;99.90;;;;;;5033518;28;20040;-72
2021/06/25 00:47:53;;;;;;;9.48;8.77;;;11.40;99.90;;;;;;5051065;28;20041;-72
2021/06/25 00:50:26;;;;;;;10.80;9.88;;;11.30;99.90;;;;;;5051687;28;20516;-72
2021/06/25 00:52:53;;;;;;;9.55;8.75;;;11.30;99.90;;;;;;5058154;28;20467;-72
2021/06/25 00:55:20;;;;;;;9.85;8.95;;;11.20;99.90;;;;;;5064467;28;20048;-72
2021/06/25 00:57:46;;;;;;;10.07;9.23;;;11.20;99.90;;;;;;5058439;28;20430;-72
2021/06/25 01:00:13;;;;;;;9.60;8.80;;;11.20;99.90;;;;;;5058219;28;20045;-71
2021/06/25 01:02:38;;;;;;;10.10;9.30;;;11.10;99.90;;;;;;5058012;28;20110;-71
2021/06/25 01:05:06;;;;;;;10.35;9.38;;;11.10;99.90;;;;;;5057472;28;20073;-72
2021/06/25 01:07:33;;;;;;;10.32;9.40;;;11.00;99.90;;;;;;5057851;28;20041;-72
2021/06/25 01:10:00;;;;;;;9.43;8.57;;;11.00;99.90;;;;;;5058161;28;20048;-71
2021/06/25 01:12:26;;;;;;;9.35;8.65;;;10.90;99.90;;;;;;5058568;28;20033;-71
2021/06/25 01:14:53;;;;;;;9.18;8.38;;;10.90;99.90;;;;;;5039908;28;20459;-71
2021/06/25 01:17:34;;;;;;;9.73;8.88;;;10.80;99.90;;;;;;5057299;28;20041;-71
2021/06/25 01:20:06;;;;;;;8.32;7.63;;;10.80;99.90;;;;;;5059112;28;20536;-71
2021/06/25 01:22:35;;;;;;;8.52;7.82;;;10.80;99.90;;;;;;5057026;28;20096;-72
2021/06/25 01:25:15;;;;;;;9.38;8.65;;;10.80;99.90;;;;;;5058329;28;20498;-72
2021/06/25 01:27:41;;;;;;;9.15;8.35;;;10.70;99.90;;;;;;5058056;28;20040;-72
2021/06/25 01:30:13;;;;;;;9.73;8.93;;;10.70;99.90;;;;;;5058374;28;20136;-72
2021/06/25 01:32:40;;;;;;;9.60;8.70;;;10.60;99.90;;;;;;5057331;28;20032;-72
2021/06/25 01:35:07;;;;;;;8.70;8.00;;;10.60;99.90;;;;;;5057698;28;20055;-72
2021/06/25 01:37:33;;;;;;;7.78;7.18;;;10.50;99.90;;;;;;5056559;28;20032;-72
2021/06/25 01:39:58;;;;;;;7.25;6.75;;;10.50;99.90;;;;;;5056434;28;20063;-72
2021/06/25 01:42:24;;;;;;;8.13;7.43;;;10.50;99.90;;;;;;5055699;28;20116;-72
2021/06/25 01:44:52;;;;;;;7.75;7.15;;;10.50;99.90;;;;;;5041966;28;20120;-72
2021/06/25 01:47:19;;;;;;;7.63;7.03;;;10.50;99.90;;;;;;5054962;28;20039;-72
2021/06/25 01:49:45;;;;;;;7.97;7.30;;;10.40;99.90;;;;;;5057886;28;20052;-71
2021/06/25 01:52:20;;;;;;;7.07;6.47;;;10.40;99.90;;;;;;5056334;28;20033;-72
2021/06/25 01:54:48;;;;;;;7.20;6.57;;;10.40;99.90;;;;;;5057015;28;20063;-72
2021/06/25 01:57:14;;;;;;;6.15;5.68;;;10.30;99.90;;;;;;5040040;28;20037;-72
2021/06/25 01:59:41;;;;;;;5.95;5.55;;;10.30;99.90;;;;;;5057901;28;20076;-72
2021/06/25 02:02:08;;;;;;;6.03;5.60;;;10.20;99.90;;;;;;5057803;28;20037;-72
2021/06/25 02:04:34;;;;;;;6.53;6.03;;;10.20;99.90;;;;;;5053813;28;20037;-72
2021/06/25 02:06:59;;;;;;;5.60;5.10;;;10.10;99.90;;;;;;5054808;28;20120;-71
2021/06/25 02:09:25;;;;;;;6.10;5.60;;;10.10;99.90;;;;;;5034988;28;20069;-72
2021/06/25 02:11:51;;;;;;;5.93;5.43;;;10.10;99.90;;;;;;5045138;28;20103;-71
2021/06/25 02:14:18;;;;;;;5.75;5.20;;;10.10;99.90;;;;;;5051923;28;20087;-72
2021/06/25 02:16:44;;;;;;;5.97;5.50;;;10.00;99.90;;;;;;5036916;28;20036;-71
2021/06/25 02:19:09;;;;;;;5.60;5.15;;;10.00;99.90;;;;;;5054078;28;20471;-72
2021/06/25 02:21:35;;;;;;;5.22;4.82;;;9.90;99.90;;;;;;5054368;28;20375;-72
2021/06/25 02:24:01;;;;;;;5.35;4.95;;;9.90;99.90;;;;;;5054093;28;20112;-71
2021/06/25 02:26:27;;;;;;;5.63;5.20;;;9.90;99.90;;;;;;5054374;28;20067;-72
2021/06/25 02:28:52;;;;;;;5.28;4.88;;;9.80;99.90;;;;;;5036221;28;20032;-72
2021/06/25 02:31:19;;;;;;;5.10;4.70;;;9.80;99.90;;;;;;5054211;28;20552;-72
2021/06/25 02:33:45;;;;;;;5.60;4.93;;;9.80;99.90;;;;;;5036256;28;20068;-72
2021/06/25 02:36:11;;;;;;;5.35;4.95;;;9.80;99.90;;;;;;5036799;28;20040;-72
2021/06/25 02:38:37;;;;;;;5.28;4.88;;;9.70;99.90;;;;;;5054339;28;20556;-72
2021/06/25 02:41:03;;;;;;;5.28;4.78;;;9.70;99.90;;;;;;5053879;28;20036;-72
2021/06/25 02:43:29;;;;;;;5.60;5.13;;;9.70;99.90;;;;;;5054151;28;20383;-72
2021/06/25 02:45:55;;;;;;;5.75;5.25;;;9.60;99.90;;;;;;5053662;28;20037;-72
2021/06/25 02:48:21;;;;;;;4.90;4.50;;;9.60;99.90;;;;;;5034975;28;20055;-72
2021/06/25 02:50:47;;;;;;;4.93;4.55;;;9.60;99.90;;;;;;5053267;28;20075;-71
2021/06/25 02:53:13;;;;;;;4.82;4.43;;;9.60;99.90;;;;;;5053708;28;20037;-71
2021/06/25 02:55:50;;;;;;;3.75;3.45;;;9.50;99.90;;;;;;5045683;28;20053;-71
2021/06/25 02:58:23;;;;;;;4.30;4.00;;;9.50;99.90;;;;;;5053552;28;20044;-72
2021/06/25 03:00:49;;;;;;;4.40;4.10;;;9.50;99.90;;;;;;5053339;28;20120;-71
2021/06/25 03:03:16;;;;;;;4.32;4.03;;;9.40;99.90;;;;;;5053004;28;20148;-71
2021/06/25 03:05:42;;;;;;;4.03;3.72;;;9.40;99.90;;;;;;5053528;28;20151;-71
2021/06/25 03:08:07;;;;;;;3.85;3.40;;;9.30;99.90;;;;;;5052026;28;20120;-72
2021/06/25 03:10:33;;;;;;;3.47;3.28;;;9.30;99.90;;;;;;5053396;28;20036;-72
2021/06/25 03:13:01;;;;;;;5.75;3.38;;;9.20;99.90;;;;;;5053450;28;20693;-72
2021/06/25 03:15:27;;;;;;;3.28;2.97;;;9.20;99.90;;;;;;5052928;28;20106;-72
2021/06/25 03:17:53;;;;;;;3.20;3.00;;;9.20;99.90;;;;;;5053127;28;20458;-72
2021/06/25 03:20:18;;;;;;;3.72;3.50;;;9.20;99.90;;;;;;5052699;28;20044;-71
2021/06/25 03:22:44;;;;;;;4.05;3.75;;;9.10;99.90;;;;;;5051415;28;20468;-71
2021/06/25 03:25:10;;;;;;;3.55;3.25;;;9.10;99.90;;;;;;5052851;28;20489;-71
2021/06/25 03:27:36;;;;;;;4.25;3.85;;;9.10;99.90;;;;;;5068198;28;20123;-71
2021/06/25 03:30:07;;;;;;;4.32;3.92;;;9.10;99.90;;;;;;5068215;28;20552;-71
2021/06/25 03:32:33;;;;;;;4.68;4.30;;;9.10;99.90;;;;;;5052526;28;20083;-72
2021/06/25 03:34:59;;;;;;;5.22;4.75;;;9.10;99.90;;;;;;5052441;28;20032;-71
2021/06/25 03:37:25;;;;;;;4.68;4.30;;;9.10;99.90;;;;;;5052728;28;20437;-71
2021/06/25 03:39:51;;;;;;;4.88;4.50;;;9.00;99.90;;;;;;5052706;28;20045;-71
2021/06/25 03:42:16;;;;;;;5.10;4.70;;;9.00;99.90;;;;;;5052432;28;20063;-71
2021/06/25 03:44:42;;;;;;;5.10;4.70;;;9.10;99.90;;;;;;5052816;28;20386;-72
2021/06/25 03:47:08;;;;;;;4.43;4.13;;;9.00;99.90;;;;;;5052100;28;20033;-71
2021/06/25 03:49:34;;;;;;;4.95;4.22;;;9.00;99.90;;;;;;5067626;28;20629;-72
2021/06/25 03:52:00;;;;;;;4.40;4.10;;;9.10;99.90;;;;;;5052567;28;20044;-71
2021/06/25 03:54:26;;;;;;;4.30;4.00;;;9.10;99.90;;;;;;5052429;28;20045;-71
2021/06/25 03:56:51;;;;;;;5.80;5.30;;;9.20;99.90;;;;;;5052495;28;20040;-72
2021/06/25 03:59:17;;;;;;;5.70;5.25;;;9.30;99.90;;;;;;5052000;28;20072;-71
2021/06/25 04:01:43;;;;;;;5.35;4.93;;;9.40;99.90;;;;;;5034633;28;20086;-71
2021/06/25 04:04:09;;;;;;;6.05;5.53;;;9.40;99.90;;;;;;5052092;28;20040;-72
2021/06/25 04:06:35;;;;;;;5.78;5.28;;;9.50;99.90;;;;;;5052629;28;20068;-71
2021/06/25 04:09:00;;;;;;;5.75;5.28;;;9.50;99.90;;;;;;5052057;28;20383;-71
2021/06/25 04:11:26;;;;;;;5.13;4.72;;;9.60;99.90;;;;;;5052008;28;20033;-72
2021/06/25 04:13:52;;;;;;;5.22;4.82;;;9.60;99.90;;;;;;5051738;28;20033;-73
2021/06/25 04:16:18;;;;;;;7.55;5.38;;;9.60;99.90;;;;;;5051689;28;20399;-71
2021/06/25 04:18:43;;;;;;;3.72;3.50;;;9.60;99.90;;;;;;5047268;28;20052;-71
2021/06/25 04:21:09;;;;;;;12.40;4.05;;;9.60;99.90;;;;;;5052000;28;20037;-72
2021/06/25 04:23:35;;;;;;;3.30;3.10;;;9.60;99.90;;;;;;5052073;28;20052;-71
2021/06/25 04:26:01;;;;;;;3.95;3.60;;;9.70;99.90;;;;;;5051685;28;20041;-71
2021/06/25 04:28:38;;;;;;;5.07;4.05;;;9.80;99.90;;;;;;5051670;28;20534;-71
2021/06/25 04:31:04;;;;;;;5.88;3.80;;;9.90;99.90;;;;;;5050582;28;20155;-71
2021/06/25 04:33:30;;;;;;;3.85;3.42;;;10.00;99.90;;;;;;5051347;28;20089;-71
2021/06/25 04:35:55;;;;;;;3.38;3.17;;;10.10;99.90;;;;;;5046091;28;20120;-72
2021/06/25 04:38:22;;;;;;;3.53;3.22;;;10.20;99.90;;;;;;5031356;28;20064;-71
2021/06/25 04:40:48;;;;;;;3.50;3.30;;;10.30;99.90;;;;;;5030820;28;20406;-71
2021/06/25 04:43:15;;;;;;;4.00;3.60;;;10.40;99.90;;;;;;5033186;28;20045;-72
2021/06/25 04:45:41;;;;;;;4.43;4.03;;;10.50;99.90;;;;;;5030809;28;20041;-72
2021/06/25 04:48:10;;;;;;;11.23;4.35;;;10.60;99.90;;;;;;5032539;28;20037;-71
2021/06/25 04:50:37;;;;;;;17.23;4.22;;;10.60;99.90;;;;;;5033119;28;20106;-71
2021/06/25 04:53:04;;;;;;;7.18;3.90;;;10.50;99.90;;;;;;5051137;28;20045;-71
2021/06/25 04:55:30;;;;;;;4.00;3.70;;;10.60;99.90;;;;;;5051438;28;20045;-71
2021/06/25 04:57:56;;;;;;;4.75;4.35;;;10.70;99.90;;;;;;5033761;28;20090;-73
2021/06/25 05:00:24;;;;;;;6.53;4.47;;;10.70;99.90;;;;;;5051108;28;20041;-71
2021/06/25 05:02:50;;;;;;;6.13;5.47;;;10.80;99.90;;;;;;5031786;28;20124;-71
2021/06/25 05:05:17;;;;;;;6.03;5.63;;;10.80;99.90;;;;;;5045250;28;20044;-71
2021/06/25 05:07:44;;;;;;;6.20;5.80;;;10.80;99.90;;;;;;5032882;28;20437;-73
2021/06/25 05:10:11;;;;;;;6.43;5.93;;;10.80;99.90;;;;;;5051341;28;20079;-71
2021/06/25 05:12:37;;;;;;;8.70;8.07;;;10.90;99.90;;;;;;5051334;28;20039;-72
2021/06/25 05:15:03;;;;;;;9.07;8.30;;;11.00;99.90;;;;;;5051313;28;20041;-71
2021/06/25 05:17:33;;;;;;;9.52;8.63;;;11.20;99.90;;;;;;5034381;28;20037;-71
2021/06/25 05:19:59;;;;;;;10.00;9.10;;;11.30;99.90;;;;;;5051109;28;20044;-71
2021/06/25 05:22:25;;;;;;;9.98;9.07;;;11.40;99.90;;;;;;5051116;28;20112;-71
2021/06/25 05:24:50;;;;;;;10.27;9.18;;;11.50;99.90;;;;;;5030386;28;20033;-72
2021/06/25 05:27:16;;;;;;;11.43;10.32;;;11.60;99.90;;;;;;5051647;28;20471;-72
2021/06/25 05:29:42;;;;;;;11.07;10.07;;;11.70;99.90;;;;;;5033360;28;20063;-71
2021/06/25 05:32:08;;;;;;;12.07;10.98;;;11.90;99.90;;;;;;5050924;28;20037;-72
2021/06/25 05:34:33;;;;;;;12.60;11.50;;;12.00;99.90;;;;;;5038377;28;20068;-72
2021/06/25 05:36:59;;;;;;;13.32;12.13;;;12.20;99.90;;;;;;5051413;28;20065;-72
2021/06/25 05:39:24;;;;;;;15.38;13.90;;;12.30;99.90;;;;;;5053940;28;20044;-72
2021/06/25 05:41:50;;;;;;;15.32;13.75;;;12.40;99.90;;;;;;5037298;28;20052;-69
2021/06/25 05:44:16;;;;;;;13.45;12.25;;;12.50;99.90;;;;;;5053941;28;20459;-72
2021/06/25 05:46:41;;;;;;;16.45;15.00;;;12.70;99.90;;;;;;5054352;28;20043;-71
2021/06/25 05:49:07;;;;;;;15.07;13.65;;;13.00;99.90;;;;;;5054516;28;20037;-71
2021/06/25 05:51:33;;;;;;;15.07;13.85;;;14.50;99.90;;;;;;5035649;28;20090;-71
2021/06/25 05:53:59;;;;;;;13.23;12.18;;;16.40;99.90;;;;;;5054458;28;20463;-71
2021/06/25 05:56:24;;;;;;;12.88;11.60;;;18.10;99.90;;;;;;5053780;28;20099;-73
2021/06/25 05:58:50;;;;;;;12.05;11.10;;;19.50;99.90;;;;;;5053536;28;20041;-71
2021/06/25 06:01:16;;;;;;;11.77;10.88;;;20.70;98.10;;;;;;5053493;28;20506;-71
2021/06/25 06:03:42;;;;;;;11.52;10.63;;;21.70;95.20;;;;;;5054024;28;20502;-71
2021/06/25 06:06:08;;;;;;;10.50;9.70;;;22.60;94.10;;;;;;5035911;28;20461;-71
2021/06/25 06:08:36;;;;;;;10.50;9.75;;;23.30;93.70;;;;;;5053301;28;20094;-72
2021/06/25 06:11:02;;;;;;;10.80;9.90;;;24.10;93.00;;;;;;5048627;23;20060;-70
2021/06/25 06:13:27;;;;;;;9.88;9.07;;;24.60;92.00;;;;;;5035299;28;20390;-70
2021/06/25 06:15:55;;;;;;;9.90;9.20;;;25.30;91.30;;;;;;5065604;28;20071;-70
2021/06/25 06:18:36;;;;;;;9.85;9.15;;;25.80;88.50;;;;;;5067411;28;20041;-69
2021/06/25 06:21:02;;;;;;;9.20;8.50;;;26.30;85.70;;;;;;5054249;28;20147;-70
2021/06/25 06:31:49;;;;;;;9.02;8.18;;;27.80;71.50;;;;;;5053540;28;20326;-71
2021/06/25 06:34:14;;;;;;;9.20;8.50;;;27.90;71.50;;;;;;5053203;28;20421;-71
2021/06/25 06:36:43;;;;;;;8.32;7.72;;;28.10;64.00;;;;;;5035225;28;20037;-71
2021/06/25 06:39:09;;;;;;;8.38;7.65;;;27.90;69.80;;;;;;5061794;28;20036;-69
2021/06/25 06:41:36;;;;;;;8.60;7.95;;;27.60;70.40;;;;;;5070524;28;20094;-70
2021/06/25 06:44:02;;;;;;;8.82;8.13;;;27.10;69.00;;;;;;5054592;28;20041;-70
2021/06/25 06:46:28;;;;;;;9.02;8.20;;;26.60;68.50;;;;;;5043599;28;20037;-71
2021/06/25 06:48:54;;;;;;;8.05;7.35;;;26.50;70.50;;;;;;5061379;28;20726;-71
2021/06/25 06:51:21;;;;;;;8.88;8.18;;;26.40;68.20;;;;;;5052214;28;20040;-71
2021/06/25 06:53:47;;;;;;;8.63;7.72;;;25.90;68.90;;;;;;5050626;28;20040;-71
2021/06/25 06:56:16;;;;;;;7.75;7.05;;;25.70;71.00;;;;;;5047393;28;20046;-72
2021/06/25 06:58:42;;;;;;;9.35;8.13;;;25.80;69.70;;;;;;5027086;28;20037;-70
2021/06/25 07:01:09;;;;;;;9.23;8.32;;;25.40;71.40;;;;;;5052745;28;20474;-71
2021/06/25 07:03:35;;;;;;;9.52;8.45;;;25.30;68.90;;;;;;5053881;28;20056;-71
2021/06/25 07:06:01;;;;;;;8.77;8.07;;;25.20;70.90;;;;;;5054578;28;20043;-70
2021/06/25 07:08:26;;;;;;;9.02;8.30;;;24.80;75.00;;;;;;5021853;28;20393;-71
2021/06/25 07:10:52;;;;;;;10.00;9.02;;;24.90;77.00;;;;;;5042495;28;20057;-70
2021/06/25 07:13:18;;;;;;;7.43;6.93;;;25.20;76.10;;;;;;5052181;28;20754;-71
2021/06/25 07:15:44;;;;;;;8.32;7.43;;;25.80;71.10;;;;;;5068639;28;20044;-71
2021/06/25 07:18:10;;;;;;;8.48;7.72;;;26.20;70.90;;;;;;5052545;28;20033;-71
2021/06/25 07:20:35;;;;;;;8.32;7.68;;;26.30;65.70;;;;;;5072182;28;20048;-70
2021/06/25 07:23:01;;;;;;;8.77;7.90;;;26.60;66.90;;;;;;5064686;28;20068;-70
2021/06/25 07:25:28;;;;;;;8.55;7.72;;;26.50;68.70;;;;;;5069697;28;20056;-70
2021/06/25 07:27:53;;;;;;;8.55;7.75;;;26.30;64.40;;;;;;5072082;28;20040;-71
2021/06/25 07:30:19;;;;;;;7.68;6.97;;;26.30;65.80;;;;;;5062572;28;20039;-70
2021/06/25 07:32:46;;;;;;;8.73;8.02;;;26.40;67.50;;;;;;5065056;28;20060;-71
2021/06/25 07:35:11;;;;;;;8.45;7.75;;;27.00;67.10;;;;;;5068916;28;20498;-70
2021/06/25 07:37:37;;;;;;;9.82;9.13;;;27.30;65.00;;;;;;5053960;28;20123;-71
2021/06/25 07:40:04;;;;;;;9.32;8.43;;;27.50;65.90;;;;;;5062667;28;20040;-70
2021/06/25 07:42:30;;;;;;;8.40;7.75;;;27.50;65.30;;;;;;5053011;28;20048;-70
2021/06/25 07:44:56;;;;;;;8.65;7.97;;;27.70;64.50;;;;;;5051741;28;20595;-71
2021/06/25 07:47:22;;;;;;;9.73;8.93;;;27.80;60.00;;;;;;5048359;28;20479;-69
2021/06/25 07:49:49;;;;;;;9.32;8.23;;;27.80;58.50;;;;;;5051107;28;20040;-71
2021/06/25 07:52:14;;;;;;;9.27;8.38;;;27.50;60.00;;;;;;5035141;28;20088;-70
2021/06/25 07:55:00;;;;;;;9.30;8.38;;;27.40;58.70;;;;;;5034448;28;20036;-72
2021/06/25 07:57:26;;;;;;;9.07;8.27;;;27.90;62.20;;;;;;5051468;28;20095;-69
2021/06/25 07:59:52;;;;;;;8.30;7.60;;;28.20;60.50;;;;;;5050830;28;20029;-69
2021/06/25 08:02:18;;;;;;;7.55;6.80;;;27.90;55.90;;;;;;5051329;28;20036;-69
2021/06/25 08:04:47;;;;;;;7.93;6.72;;;27.30;55.70;;;;;;5053075;28;20593;-73
2021/06/25 08:07:13;;;;;;;7.07;6.38;;;27.10;56.60;;;;;;5051826;28;20570;-69
2021/06/25 08:09:40;;;;;;;7.13;6.60;;;26.50;56.40;;;;;;5033972;28;20048;-70
2021/06/25 08:12:07;;;;;;;7.65;7.00;;;26.80;57.00;;;;;;5052078;28;20051;-70
2021/06/25 08:14:33;;;;;;;6.75;6.15;;;26.80;57.00;;;;;;5050065;28;20033;-70
2021/06/25 08:16:59;;;;;;;6.45;5.95;;;26.60;56.90;;;;;;5061654;28;20094;-70
2021/06/25 08:19:24;;;;;;;6.93;5.35;;;26.30;58.90;;;;;;5053236;28;20489;-70
2021/06/25 08:21:50;;;;;;;5.57;5.07;;;25.90;58.50;;;;;;5052018;28;20509;-71
2021/06/25 08:24:16;;;;;;;4.70;4.30;;;25.80;58.80;;;;;;5051906;28;20037;-70
2021/06/25 08:26:41;;;;;;;5.38;4.60;;;25.60;58.00;;;;;;5051128;28;20040;-70
2021/06/25 08:29:07;;;;;;;4.15;3.80;;;25.40;58.00;;;;;;5053337;28;20124;-71
2021/06/25 08:31:32;;;;;;;5.35;4.85;;;25.10;59.50;;;;;;5047725;28;20090;-70
2021/06/25 08:33:58;;;;;;;5.32;4.43;;;24.10;56.50;;;;;;5048753;28;20059;-71
2021/06/25 08:36:25;;;;;;;5.28;4.82;;;24.30;61.20;;;;;;5047021;28;20036;-71
2021/06/25 08:38:51;;;;;;;4.75;4.32;;;24.20;59.60;;;;;;5071182;28;20044;-72
2021/06/25 08:41:17;;;;;;;4.30;3.90;;;24.10;58.90;;;;;;5041996;28;20029;-72
2021/06/25 08:43:43;;;;;;;4.97;4.50;;;23.80;60.20;;;;;;5051688;28;20079;-71
2021/06/25 08:46:10;;;;;;;4.50;3.92;;;23.60;58.50;;;;;;5059787;28;20383;-72
2021/06/25 08:48:37;;;;;;;5.13;4.28;;;23.50;59.40;;;;;;5059732;28;20033;-72
2021/06/25 08:51:05;;;;;;;5.28;4.15;;;23.50;58.50;;;;;;5058340;28;20032;-72
2021/06/25 08:53:32;;;;;;;5.38;4.60;;;23.60;61.20;;;;;;5049721;28;20045;-71
2021/06/25 08:55:57;;;;;;;4.70;4.30;;;23.70;58.90;;;;;;5059701;28;20106;-72
2021/06/25 08:58:24;;;;;;;4.88;4.45;;;23.90;62.30;;;;;;5043865;28;20474;-72
2021/06/25 09:00:51;;;;;;;5.85;5.22;;;24.00;59.20;;;;;;5041253;28;20081;-72
2021/06/25 09:03:32;;;;;;;6.90;6.30;;;24.00;58.90;;;;;;5067776;28;20033;-72
2021/06/25 09:06:14;;;;;;;8.60;6.93;;;23.70;57.80;;;;;;5042157;28;20040;-73
2021/06/25 09:08:41;;;;;;;7.63;7.10;;;23.60;58.90;;;;;;5071593;28;20037;-72
2021/06/25 09:11:29;;;;;;;7.30;6.68;;;23.70;62.00;;;;;;5064801;28;20500;-71
2021/06/25 09:14:02;;;;;;;7.45;6.63;;;23.60;62.60;;;;;;5056851;28;20037;-72
2021/06/25 09:16:34;;;;;;;8.00;6.78;;;23.60;64.80;;;;;;5053425;28;20029;-72
2021/06/25 09:19:14;;;;;;;7.28;6.60;;;23.60;64.30;;;;;;5055275;28;20417;-72
2021/06/25 09:21:42;;;;;;;7.63;6.88;;;23.40;62.00;;;;;;5035379;28;20052;-72
2021/06/25 09:24:26;;;;;;;11.75;6.95;;;23.20;63.50;;;;;;5052605;28;20037;-72
2021/06/25 09:26:59;;;;;;;50.50;8.82;;;23.00;62.30;;;;;;5035455;28;20049;-72
2021/06/25 09:29:28;;;;;;;9.93;5.93;;;22.80;61.70;;;;;;5036213;28;20037;-71
2021/06/25 09:32:05;;;;;;;5.88;5.28;;;22.60;64.70;;;;;;5046131;28;20034;-71
2021/06/25 09:34:49;;;;;;;5.60;4.97;;;22.50;67.60;;;;;;5048308;28;20040;-71
2021/06/25 09:37:18;;;;;;;11.30;5.32;;;22.30;62.70;;;;;;5055278;28;20040;-74
2021/06/25 09:39:57;;;;;;;5.03;4.47;;;22.10;64.40;;;;;;5070452;28;20482;-75
2021/06/25 09:42:23;;;;;;;6.03;5.43;;;21.90;63.40;;;;;;5073589;28;20420;-75
2021/06/25 09:45:14;;;;;;;5.95;5.30;;;21.90;67.20;;;;;;5073986;28;20033;-75
2021/06/25 09:47:43;;;;;;;5.40;4.90;;;21.80;68.50;;;;;;5042485;28;20037;-75
2021/06/25 09:50:14;;;;;;;6.15;5.07;;;21.80;69.70;;;;;;5064091;28;20496;-75
2021/06/25 09:52:47;;;;;;;6.20;5.60;;;21.60;68.60;;;;;;5061900;28;20051;-75
2021/06/25 09:55:13;;;;;;;5.88;5.30;;;21.50;67.10;;;;;;5056534;28;20033;-75
2021/06/25 09:58:21;;;;;;;6.32;5.65;;;21.40;71.00;;;;;;5031095;28;20033;-75
2021/06/25 10:03:39;;;;;;;5.97;4.57;;;21.30;71.50;;;;;;5052620;28;20071;-75
2021/06/25 10:06:14;;;;;;;4.90;4.50;;;21.30;70.00;;;;;;5051127;28;20482;-75
2021/06/25 10:08:41;;;;;;;5.65;5.07;;;21.40;70.10;;;;;;5052528;28;20044;-75
2021/06/25 10:11:08;;;;;;;5.75;5.15;;;21.40;68.00;;;;;;5052598;28;20053;-75
2021/06/25 10:13:36;;;;;;;6.07;5.45;;;21.50;69.30;;;;;;5053138;28;20521;-75
2021/06/25 10:16:04;;;;;;;13.73;6.25;;;21.60;70.30;;;;;;5053948;28;20112;-75
2021/06/25 10:18:36;;;;;;;7.07;6.13;;;21.50;70.00;;;;;;5035561;28;20071;-75
2021/06/25 10:21:04;;;;;;;6.28;5.68;;;21.50;69.80;;;;;;5043851;28;20036;-75
2021/06/25 10:23:33;;;;;;;6.07;5.57;;;21.50;71.20;;;;;;5053003;28;20475;-75
2021/06/25 10:26:06;;;;;;;6.07;5.40;;;21.50;69.70;;;;;;5061346;28;20028;-75
2021/06/25 10:28:34;;;;;;;6.85;5.38;;;21.50;70.30;;;;;;5051570;28;20470;-75
2021/06/25 10:31:00;;;;;;;5.30;4.82;;;21.60;72.60;;;;;;5052027;28;20037;-75
2021/06/25 10:33:28;;;;;;;5.75;4.57;;;21.70;73.10;;;;;;5051416;28;20055;-75
2021/06/25 10:35:54;;;;;;;6.05;4.88;;;21.90;74.10;;;;;;5057715;28;20092;-75
2021/06/25 10:38:25;;;;;;;11.88;6.30;;;22.20;74.80;;;;;;5053345;28;20124;-74
2021/06/25 10:41:02;;;;;;;7.70;6.35;;;22.30;71.40;;;;;;5051299;28;20095;-75
2021/06/25 10:43:45;;;;;;;7.60;6.82;;;22.40;72.00;;;;;;5039000;28;20041;-75
2021/06/25 10:46:33;;;;;;;12.40;7.32;;;22.60;72.50;;;;;;5046352;28;20040;-75
2021/06/25 10:49:02;;;;;;;7.97;6.95;;;22.90;72.00;;;;;;5051265;28;20029;-75
2021/06/25 10:51:32;;;;;;;8.32;6.50;;;23.00;69.40;;;;;;5052223;28;20041;-76
2021/06/25 10:54:10;;;;;;;8.70;7.07;;;23.20;70.70;;;;;;5046329;28;20037;-76
2021/06/25 10:56:38;;;;;;;8.23;7.07;;;23.30;67.80;;;;;;5048344;28;20033;-75
2021/06/25 10:59:23;;;;;;;7.32;6.63;;;23.40;70.10;;;;;;5052693;28;20167;-76
2021/06/25 11:01:58;;;;;;;8.48;7.22;;;23.40;69.10;;;;;;5052602;28;20376;-75
2021/06/25 11:04:35;;;;;;;7.60;6.82;;;23.40;70.30;;;;;;5053009;28;20693;-75
2021/06/25 11:07:09;;;;;;;8.77;7.28;;;23.50;69.50;;;;;;5034910;28;20099;-75
2021/06/25 11:09:51;;;;;;;8.10;7.32;;;23.40;67.60;;;;;;5051007;28;20453;-75
2021/06/25 11:12:37;;;;;;;7.70;6.90;;;23.30;66.00;;;;;;5034836;28;20411;-75
2021/06/25 11:15:05;;;;;;;7.38;6.57;;;23.40;68.70;;;;;;5052456;28;20052;-77
2021/06/25 11:17:53;;;;;;;9.32;7.25;;;23.60;68.10;;;;;;5052567;28;20120;-75
2021/06/25 11:20:34;;;;;;;8.57;6.75;;;23.50;66.00;;;;;;5055711;28;20101;-75
2021/06/25 11:23:05;;;;;;;9.65;7.82;;;23.70;68.30;;;;;;5052128;28;20037;-75
2021/06/25 11:25:56;;;;;;;8.13;7.27;;;23.90;68.70;;;;;;5038792;28;20032;-76
2021/06/25 11:28:26;;;;;;;8.68;7.80;;;24.00;66.80;;;;;;5044119;28;20040;-76
2021/06/25 11:30:53;;;;;;;8.65;7.43;;;24.30;67.70;;;;;;5053377;28;20049;-76
2021/06/25 11:33:55;;;;;;;8.25;7.55;;;24.40;68.40;;;;;;5051113;28;20036;-75
2021/06/25 11:36:22;;;;;;;10.27;8.48;;;24.50;68.20;;;;;;5056273;28;20103;-75
2021/06/25 11:39:09;;;;;;;9.05;7.90;;;24.60;69.00;;;;;;5072060;28;20040;-76
2021/06/25 11:41:48;;;;;;;8.02;7.22;;;24.50;66.10;;;;;;5050313;28;20569;-75
2021/06/25 11:44:21;;;;;;;11.00;9.90;;;24.40;67.30;;;;;;5014186;28;20072;-75
2021/06/25 11:47:11;;;;;;;11.40;10.35;;;24.40;67.20;;;;;;5025536;28;20102;-78
2021/06/25 11:50:05;;;;;;;11.43;10.32;;;24.40;67.10;;;;;;5018406;28;20099;-76
2021/06/25 11:52:40;;;;;;;11.07;8.90;;;24.50;67.20;;;;;;5051156;28;20130;-77
2021/06/25 11:55:09;;;;;;;10.52;9.43;;;24.60;67.10;;;;;;5050943;28;20124;-75
2021/06/25 11:57:37;;;;;;;10.27;9.27;;;24.50;68.20;;;;;;5046623;28;20145;-75
2021/06/25 12:00:13;;;;;;;11.57;9.40;;;24.40;69.00;;;;;;5050369;28;20041;-75
2021/06/25 12:02:47;;;;;;;12.70;11.43;;;24.50;69.30;;;;;;5050823;28;20049;-76
2021/06/25 12:05:18;;;;;;;12.10;10.90;;;24.60;68.90;;;;;;5050017;28;20028;-75
2021/06/25 12:07:44;;;;;;;12.70;10.82;;;24.50;69.30;;;;;;5051006;28;20108;-76
2021/06/25 12:10:15;;;;;;;14.05;12.55;;;24.50;71.60;;;;;;5067697;28;20048;-75
2021/06/25 12:12:41;;;;;;;14.23;12.73;;;24.50;71.10;;;;;;5053452;28;20048;-75
2021/06/25 12:15:08;;;;;;;14.07;12.73;;;24.60;70.00;;;;;;5053767;28;20095;-75
2021/06/25 12:17:48;;;;;;;13.90;12.40;;;24.60;68.50;;;;;;5051366;28;20047;-75
2021/06/25 12:20:16;;;;;;;15.10;13.50;;;24.70;67.20;;;;;;5069610;28;20041;-75
2021/06/25 12:22:53;;;;;;;15.05;13.45;;;24.40;68.40;;;;;;5053426;28;20573;-75
2021/06/25 12:25:38;;;;;;;14.68;13.25;;;24.20;68.10;;;;;;5020413;28;20033;-75
2021/06/25 12:28:14;;;;;;;14.85;13.35;;;24.00;70.50;;;;;;5047425;28;20122;-75
2021/06/25 12:31:01;;;;;;;12.70;11.43;;;23.90;72.60;;;;;;5037757;28;20041;-75
2021/06/25 12:33:32;;;;;;;14.90;13.40;;;23.80;71.80;;;;;;5050590;28;20037;-75
2021/06/25 12:35:58;;;;;;;14.70;13.27;;;23.80;72.80;;;;;;5048369;28;20075;-75
2021/06/25 12:38:26;;;;;;;15.07;13.35;;;23.70;73.20;;;;;;5043144;28;20030;-75
2021/06/25 12:40:57;;;;;;;14.02;12.63;;;23.70;74.50;;;;;;5031868;28;20120;-76
2021/06/25 12:43:30;;;;;;;15.05;13.65;;;23.80;73.20;;;;;;5049900;28;20045;-76
2021/06/25 12:46:01;;;;;;;15.18;13.65;;;23.70;73.80;;;;;;5050222;28;20051;-76
2021/06/25 12:48:29;;;;;;;14.45;13.10;;;23.60;73.50;;;;;;5049404;28;20052;-76
2021/06/25 12:51:22;;;;;;;17.80;14.38;;;23.50;73.70;;;;;;5032586;28;20502;-75
2021/06/25 12:53:50;;;;;;;16.83;13.73;;;23.50;74.90;;;;;;5025027;28;20053;-75
2021/06/25 12:56:22;;;;;;;16.10;14.52;;;23.50;76.50;;;;;;5032270;28;20037;-76
2021/06/25 12:59:00;;;;;;;14.38;13.00;;;23.50;76.30;;;;;;5048516;28;20041;-75
2021/06/25 13:01:35;;;;;;;16.10;13.70;;;23.50;77.00;;;;;;5032010;28;20037;-74
2021/06/25 13:04:01;;;;;;;15.82;13.00;;;23.60;80.20;;;;;;5048858;28;20045;-72